Weather History for Rolla, ND

Change the Weather History Date:

Sunday, April 13, 2014

  Actual Average (KRUG) Record (KRUG)
Temperature  
Mean Temperature 22 °F -  
Max Temperature 28 °F 51 °F 80 °F (1976)
Min Temperature 15 °F 29 °F 14 °F (1983)
Degree Days  
Heating Degree Days 44    
Moisture  
Dew Point 15 °F    
Average Humidity 73    
Maximum Humidity 100    
Minimum Humidity 47    
Precipitation  
Precipitation 0.00 in - - ()
Sea Level Pressure  
Sea Level Pressure 30.16 in    
Wind  
Wind Speed 21 mph (NNW)    
Max Wind Speed 30 mph    
Max Gust Speed 37 mph    
Visibility 10 miles    
Events Snow    
Averages and records for this station are not official NWS values.
T = Trace of Precipitation, MM = Missing Value Source: NWS Daily Summary

Daily Weather History Graph

Daily Weather History Graph

Search for Another Location

Airport:

Trip Planner

Search our weather history database for the weather conditions in past years. The results will help you decide how hot, cold, wet, or windy it might be!

Date:

Astronomy

Apr. 13, 2014 Rise Set
Actual Time 6:51 AM CDT 8:27 PM CDT
Civil Twilight 6:18 AM CDT 9:00 PM CDT
Nautical Twilight 5:38 AM CDT 9:41 PM CDT
Astronomical Twilight 4:54 AM CDT 10:25 PM CDT
Moon 7:01 PM CDT (4/13) 5:59 AM CDT (4/13)
Length of Visible Light 14h 42m
Length of Day
13h 36m
Waxing Gibbous, 97% of the Moon is Illuminated
Apr 13
Waxing Gibbous
Apr 15
Full
Apr 22
Last Quarter
Apr 29
New
May 6
First Quarter

Hourly Weather History & Observations

Time (CDT) Temp. Windchill Dew Point Humidity Pressure Visibility Wind Dir Wind Speed Gust Speed Precip Events Conditions
12:15 AM 24.8 °F 10.7 °F 23.0 °F 93% 29.99 in 10.0 mi NNW 19.6 mph 32.2 mph N/A   Overcast
12:35 AM 24.8 °F 10.7 °F 23.0 °F 93% 30.00 in 10.0 mi NNW 19.6 mph 27.6 mph N/A   Overcast
12:55 AM 24.8 °F 9.6 °F 23.0 °F 93% 30.00 in 10.0 mi NNW 23.0 mph 28.8 mph N/A   Overcast
1:15 AM 24.8 °F 10.0 °F 23.0 °F 93% 30.00 in 10.0 mi NNW 21.9 mph 31.1 mph N/A   Overcast
1:35 AM 24.8 °F 9.6 °F 23.0 °F 93% 30.01 in 10.0 mi NNW 23.0 mph 29.9 mph N/A   Overcast
1:55 AM 23.0 °F 7.2 °F 23.0 °F 100% 30.02 in 10.0 mi NNW 23.0 mph 31.1 mph N/A   Overcast
2:15 AM 23.0 °F 6.0 °F 19.4 °F 86% 30.02 in 10.0 mi NNW 27.6 mph 34.5 mph N/A   Mostly Cloudy
2:35 AM 21.2 °F 3.5 °F 17.6 °F 86% 30.03 in 10.0 mi NNW 27.6 mph 36.8 mph N/A   Scattered Clouds
2:55 AM 19.4 °F 1.4 °F 17.6 °F 93% 30.04 in 10.0 mi NNW 26.5 mph 32.2 mph N/A   Scattered Clouds
3:15 AM 19.4 °F 0.5 °F 17.6 °F 93% 30.04 in 10.0 mi NNW 29.9 mph 36.8 mph N/A   Mostly Cloudy
3:35 AM 19.4 °F 1.4 °F 15.8 °F 86% 30.04 in 10.0 mi NNW 26.5 mph 34.5 mph N/A   Mostly Cloudy
3:55 AM 17.6 °F -1.6 °F 15.8 °F 93% 30.04 in 10.0 mi NNW 28.8 mph 34.5 mph N/A   Clear
4:15 AM 17.6 °F -0.6 °F 15.8 °F 93% 30.05 in 10.0 mi NNW 25.3 mph 34.5 mph N/A   Clear
4:35 AM 17.6 °F -1.3 °F 15.8 °F 93% 30.05 in 10.0 mi NNW 27.6 mph - N/A   Clear
4:55 AM 17.6 °F -1.3 °F 14.0 °F 86% 30.07 in 10.0 mi NNW 27.6 mph 34.5 mph N/A   Clear
5:15 AM 17.6 °F -0.6 °F 14.0 °F 86% 30.07 in 10.0 mi NNW 25.3 mph 31.1 mph N/A   Clear
5:35 AM 17.6 °F 0.1 °F 15.8 °F 93% 30.08 in 10.0 mi NNW 23.0 mph 32.2 mph N/A   Partly Cloudy
5:55 AM 17.6 °F 0.9 °F 15.8 °F 93% 30.08 in 10.0 mi NNW 20.7 mph 31.1 mph N/A   Partly Cloudy
6:15 AM 17.6 °F 0.1 °F 15.8 °F 93% 30.09 in 10.0 mi NNW 23.0 mph 29.9 mph N/A   Partly Cloudy
6:35 AM 15.8 °F -3.1 °F 14.0 °F 93% 30.09 in 10.0 mi NNW 25.3 mph 29.9 mph N/A   Partly Cloudy
6:55 AM 15.8 °F -1.1 °F 14.0 °F 93% 30.12 in 10.0 mi NNW 19.6 mph 28.8 mph N/A Snow Light Snow
7:15 AM 15.8 °F -1.1 °F 14.0 °F 93% 30.13 in 10.0 mi NNW 19.6 mph 26.5 mph N/A   Scattered Clouds
7:35 AM 15.8 °F -1.1 °F 14.0 °F 93% 30.14 in 10.0 mi NNW 19.6 mph 25.3 mph N/A   Partly Cloudy
7:55 AM 17.6 °F 0.9 °F 14.0 °F 86% 30.15 in 10.0 mi NNW 20.7 mph 27.6 mph N/A   Partly Cloudy
8:15 AM 17.6 °F 0.9 °F 14.0 °F 86% 30.16 in 10.0 mi North 20.7 mph 28.8 mph N/A   Scattered Clouds
8:35 AM 17.6 °F 0.1 °F 14.0 °F 86% 30.17 in 10.0 mi North 23.0 mph 28.8 mph N/A   Mostly Cloudy
8:55 AM 19.4 °F 3.2 °F 14.0 °F 80% 30.17 in 10.0 mi North 20.7 mph 29.9 mph N/A   Mostly Cloudy
9:15 AM 19.4 °F 2.8 °F 14.0 °F 80% 30.18 in 10.0 mi North 21.9 mph 25.3 mph N/A   Mostly Cloudy
9:35 AM 19.4 °F 3.2 °F 14.0 °F 80% 30.18 in 10.0 mi North 20.7 mph - N/A   Scattered Clouds
9:55 AM 21.2 °F 5.6 °F 14.0 °F 74% 30.19 in 10.0 mi North 20.7 mph 26.5 mph N/A   Scattered Clouds
10:15 AM 21.2 °F 5.2 °F 14.0 °F 74% 30.19 in 10.0 mi North 21.9 mph 25.3 mph N/A   Scattered Clouds
10:35 AM 23.0 °F 8.7 °F 14.0 °F 68% 30.20 in 10.0 mi North 18.4 mph 27.6 mph N/A   Scattered Clouds
10:55 AM 23.0 °F 9.2 °F 15.8 °F 74% 30.20 in 10.0 mi North 17.3 mph 24.2 mph N/A   Scattered Clouds
11:15 AM 23.0 °F 8.0 °F 15.8 °F 74% 30.20 in 10.0 mi North 20.7 mph 25.3 mph N/A   Scattered Clouds
11:35 AM 24.8 °F 10.7 °F 15.8 °F 69% 30.20 in 10.0 mi North 19.6 mph 26.5 mph N/A   Mostly Cloudy
11:55 AM 24.8 °F 11.1 °F 14.0 °F 64% 30.21 in 10.0 mi NNW 18.4 mph 26.5 mph N/A   Mostly Cloudy
12:15 PM 24.8 °F 9.6 °F 14.0 °F 64% 30.20 in 10.0 mi NNW 23.0 mph 28.8 mph N/A   Mostly Cloudy
12:35 PM 24.8 °F 10.3 °F 14.0 °F 64% 30.19 in 10.0 mi North 20.7 mph 28.8 mph N/A   Mostly Cloudy
12:55 PM 24.8 °F 9.3 °F 10.4 °F 54% 30.19 in 10.0 mi NNW 24.2 mph 29.9 mph N/A   Overcast
1:15 PM 26.6 °F 13.1 °F 12.2 °F 55% 30.19 in 10.0 mi North 19.6 mph 26.5 mph N/A   Overcast
1:35 PM 26.6 °F 12.7 °F 12.2 °F 55% 30.19 in 10.0 mi NNW 20.7 mph 29.9 mph N/A   Overcast
1:55 PM 26.6 °F 12.0 °F 12.2 °F 55% 30.19 in 10.0 mi NNW 23.0 mph 31.1 mph N/A   Mostly Cloudy
2:15 PM 26.6 °F 12.4 °F 12.2 °F 55% 30.20 in 10.0 mi NNW 21.9 mph 29.9 mph N/A   Mostly Cloudy
2:35 PM 26.6 °F 12.4 °F 14.0 °F 59% 30.20 in 10.0 mi NNW 21.9 mph 27.6 mph N/A   Overcast
2:55 PM 26.6 °F 12.0 °F 14.0 °F 59% 30.20 in 10.0 mi NNW 23.0 mph 28.8 mph N/A   Overcast
3:15 PM 26.6 °F 12.7 °F 14.0 °F 59% 30.21 in 10.0 mi NNW 20.7 mph 26.5 mph N/A   Overcast
3:35 PM 28.4 °F 14.7 °F 14.0 °F 55% 30.21 in 10.0 mi NNW 21.9 mph 32.2 mph N/A   Overcast
3:55 PM 26.6 °F 13.1 °F 12.2 °F 55% 30.21 in 10.0 mi North 19.6 mph 23.0 mph N/A   Mostly Cloudy
4:15 PM 28.4 °F 14.7 °F 10.4 °F 47% 30.21 in 10.0 mi North 21.9 mph 28.8 mph N/A   Mostly Cloudy
4:35 PM 28.4 °F 14.4 °F 12.2 °F 51% 30.21 in 10.0 mi NNW 23.0 mph 26.5 mph N/A   Mostly Cloudy
4:55 PM 28.4 °F 16.2 °F 12.2 °F 51% 30.21 in 10.0 mi North 17.3 mph 25.3 mph N/A   Overcast
5:15 PM 26.6 °F 13.4 °F 10.4 °F 51% 30.22 in 10.0 mi NNW 18.4 mph - N/A   Overcast
5:35 PM 26.6 °F 13.1 °F 10.4 °F 51% 30.22 in 10.0 mi North 19.6 mph 27.6 mph N/A   Overcast
5:55 PM 28.4 °F 16.2 °F 12.2 °F 51% 30.22 in 10.0 mi North 17.3 mph 21.9 mph N/A   Overcast
6:15 PM 28.4 °F 16.6 °F 12.2 °F 51% 30.22 in 10.0 mi North 16.1 mph 23.0 mph N/A   Overcast
6:35 PM 28.4 °F 15.8 °F 12.2 °F 51% 30.22 in 10.0 mi NNW 18.4 mph 24.2 mph N/A   Overcast
6:55 PM 26.6 °F 13.8 °F 10.4 °F 51% 30.22 in 10.0 mi North 17.3 mph - N/A   Mostly Cloudy
7:15 PM 26.6 °F 15.2 °F 10.4 °F 51% 30.22 in 10.0 mi North 13.8 mph - N/A   Mostly Cloudy
7:35 PM 26.6 °F 14.3 °F 12.2 °F 55% 30.21 in 10.0 mi NNW 16.1 mph - N/A   Partly Cloudy
7:55 PM 26.6 °F 14.3 °F 12.2 °F 55% 30.21 in 10.0 mi NNW 16.1 mph - N/A   Partly Cloudy
8:15 PM 26.6 °F 16.2 °F 14.0 °F 59% 30.21 in 10.0 mi NNW 11.5 mph - N/A   Clear
8:35 PM 24.8 °F 14.6 °F 14.0 °F 64% 30.21 in 10.0 mi NNW 10.4 mph - N/A   Clear
8:55 PM 24.8 °F 15.3 °F 14.0 °F 64% 30.22 in 10.0 mi North 9.2 mph - N/A   Clear
9:15 PM 24.8 °F 16.9 °F 15.8 °F 69% 30.22 in 10.0 mi NNW 6.9 mph - N/A   Clear
9:35 PM 24.8 °F 16.9 °F 15.8 °F 69% 30.22 in 10.0 mi NNW 6.9 mph - N/A   Clear
9:55 PM 24.8 °F 19.1 °F 17.6 °F 74% 30.23 in 10.0 mi WNW 4.6 mph - N/A   Clear
10:15 PM 23.0 °F 14.7 °F 17.6 °F 80% 30.22 in 10.0 mi NW 6.9 mph - N/A   Clear
10:35 PM 23.0 °F 14.7 °F 15.8 °F 74% 30.22 in 10.0 mi NW 6.9 mph - N/A   Clear
10:55 PM 23.0 °F 15.8 °F 15.8 °F 74% 30.22 in 10.0 mi NW 5.8 mph - N/A   Clear
11:15 PM 23.0 °F 13.9 °F 15.8 °F 74% 30.22 in 10.0 mi NW 8.1 mph - N/A   Clear
11:35 PM 23.0 °F 14.7 °F 15.8 °F 74% 30.23 in 10.0 mi WNW 6.9 mph - N/A   Clear
11:55 PM 23.0 °F 14.7 °F 15.8 °F 74% 30.23 in 10.0 mi WNW 6.9 mph - N/A   Clear